createdAt,value
2016-06-29T00:00:33.802Z,1009.51
2016-06-29T00:01:33.826Z,1009.51
2016-06-29T00:02:33.856Z,1009.46
2016-06-29T00:03:33.882Z,1009.49
2016-06-29T00:04:33.904Z,1009.45
2016-06-29T00:06:33.953Z,1009.44
2016-06-29T00:07:33.979Z,1009.45
2016-06-29T00:08:34.004Z,1009.44
2016-06-29T00:09:34.028Z,1009.41
2016-06-29T00:10:34.054Z,1009.42
2016-06-29T00:11:34.074Z,1009.41
2016-06-29T00:12:34.097Z,1009.41
2016-06-29T00:13:34.123Z,1009.37
2016-06-29T00:14:34.149Z,1009.36
2016-06-29T00:15:34.171Z,1009.34
2016-06-29T00:16:34.198Z,1009.32
2016-06-29T00:17:34.226Z,1009.31
2016-06-29T00:18:34.249Z,1009.26
2016-06-29T00:19:34.274Z,1009.28
2016-06-29T00:21:34.323Z,1009.27
2016-06-29T00:22:34.344Z,1009.26
2016-06-29T00:23:34.374Z,1009.23
2016-06-29T00:24:34.393Z,1009.21
2016-06-29T00:25:34.419Z,1009.18
2016-06-29T00:26:34.447Z,1009.18
2016-06-29T00:27:34.467Z,1009.18
2016-06-29T00:28:34.499Z,1009.19
2016-06-29T00:29:34.521Z,1009.19
2016-06-29T00:30:34.542Z,1009.17
2016-06-29T00:31:34.569Z,1009.13
2016-06-29T00:32:34.591Z,1009.1
2016-06-29T00:33:34.614Z,1009.11
2016-06-29T00:34:34.646Z,1009.1
2016-06-29T00:35:34.679Z,1009.07
2016-06-29T00:36:34.690Z,1009.07
2016-06-29T00:37:34.721Z,1009.08
2016-06-29T00:38:34.738Z,1009.08
2016-06-29T00:39:34.770Z,1009.08
2016-06-29T00:40:34.790Z,1009.03
2016-06-29T00:41:34.816Z,1009.05
2016-06-29T00:42:34.844Z,1009.01
2016-06-29T00:43:34.862Z,1008.99
2016-06-29T00:44:34.887Z,1008.95
2016-06-29T00:45:34.911Z,1008.91
2016-06-29T00:46:34.933Z,1008.95
2016-06-29T00:47:34.963Z,1008.87
2016-06-29T00:48:34.987Z,1008.87
2016-06-29T00:49:35.009Z,1008.83
2016-06-29T00:50:35.037Z,1008.8
2016-06-29T00:51:35.059Z,1008.79
2016-06-29T00:53:35.107Z,1008.75
2016-06-29T00:54:35.138Z,1008.75
2016-06-29T00:55:35.158Z,1008.73
2016-06-29T00:56:35.190Z,1008.71
2016-06-29T00:57:35.209Z,1008.74
2016-06-29T00:58:35.235Z,1008.7
2016-06-29T00:59:35.258Z,1008.68
2016-06-29T01:00:35.278Z,1008.68
2016-06-29T01:01:35.309Z,1008.67
2016-06-29T01:02:35.336Z,1008.63
2016-06-29T01:03:35.373Z,1008.66
2016-06-29T01:04:35.383Z,1008.68
2016-06-29T01:05:35.404Z,1008.7
2016-06-29T01:06:35.426Z,1008.7
2016-06-29T01:07:35.451Z,1008.68
2016-06-29T01:09:35.504Z,1008.65
2016-06-29T01:10:35.525Z,1008.68
2016-06-29T01:11:35.549Z,1008.68
2016-06-29T01:12:35.572Z,1008.7
2016-06-29T01:13:35.601Z,1008.69
2016-06-29T01:14:35.624Z,1008.69
2016-06-29T01:15:35.644Z,1008.67
2016-06-29T01:16:35.672Z,1008.66
2016-06-29T01:17:35.698Z,1008.64
2016-06-29T01:18:35.721Z,1008.63
2016-06-29T01:19:35.750Z,1008.66
2016-06-29T01:20:35.778Z,1008.7
2016-06-29T01:21:35.847Z,1008.67
2016-06-29T01:22:35.823Z,1008.69
2016-06-29T01:23:35.849Z,1008.67
2016-06-29T01:25:35.893Z,1008.65
2016-06-29T01:26:35.918Z,1008.64
2016-06-29T01:27:35.941Z,1008.65
2016-06-29T01:28:35.962Z,1008.6
2016-06-29T01:29:35.990Z,1008.58
2016-06-29T01:30:36.014Z,1008.53
2016-06-29T01:31:36.042Z,1008.53
2016-06-29T01:32:36.068Z,1008.52
2016-06-29T01:33:36.092Z,1008.52
2016-06-29T01:34:36.119Z,1008.52
2016-06-29T01:35:36.141Z,1008.51
2016-06-29T01:36:36.164Z,1008.52
2016-06-29T01:37:36.186Z,1008.52
2016-06-29T01:38:36.209Z,1008.5
2016-06-29T01:39:36.248Z,1008.51
2016-06-29T01:41:36.285Z,1008.49
2016-06-29T01:42:36.307Z,1008.45
2016-06-29T01:43:36.332Z,1008.42
2016-06-29T01:44:36.357Z,1008.44
2016-06-29T01:45:36.384Z,1008.4
2016-06-29T01:46:36.406Z,1008.44
2016-06-29T01:47:36.428Z,1008.41
2016-06-29T01:48:36.458Z,1008.42
2016-06-29T01:49:36.482Z,1008.41
2016-06-29T01:50:36.506Z,1008.37
2016-06-29T01:51:36.526Z,1008.38
2016-06-29T01:52:36.554Z,1008.31
2016-06-29T01:53:36.577Z,1008.33
2016-06-29T01:54:36.601Z,1008.31
2016-06-29T01:56:36.650Z,1008.28
2016-06-29T01:57:36.681Z,1008.28
2016-06-29T01:58:36.703Z,1008.28
2016-06-29T01:59:36.733Z,1008.21
2016-06-29T02:00:36.755Z,1008.24
2016-06-29T02:01:36.779Z,1008.19
2016-06-29T02:02:36.800Z,1008.14
2016-06-29T02:03:36.825Z,1008.19
2016-06-29T02:04:36.850Z,1008.15
2016-06-29T02:05:36.878Z,1008.15
2016-06-29T02:06:36.898Z,1008.15
2016-06-29T02:07:36.919Z,1008.12
2016-06-29T02:08:36.945Z,1008.13
2016-06-29T02:09:36.974Z,1008.09
2016-06-29T02:10:36.999Z,1008.11
2016-06-29T02:11:37.020Z,1008.13
2016-06-29T02:12:37.043Z,1008.09
2016-06-29T02:13:37.069Z,1008.09
2016-06-29T02:14:37.094Z,1008.02
2016-06-29T02:15:37.119Z,1008
2016-06-29T02:16:37.149Z,1008
2016-06-29T02:17:37.166Z,1007.95
2016-06-29T02:18:37.190Z,1007.93
2016-06-29T02:19:37.217Z,1007.92
2016-06-29T02:20:37.242Z,1007.88
2016-06-29T02:21:37.268Z,1007.88
2016-06-29T02:22:37.288Z,1007.87
2016-06-29T02:23:37.318Z,1007.81
2016-06-29T02:24:37.335Z,1007.8
2016-06-29T02:25:37.365Z,1007.78
2016-06-29T02:26:37.387Z,1007.75
2016-06-29T02:28:37.439Z,1007.63
2016-06-29T02:29:37.479Z,1007.59
2016-06-29T02:30:37.486Z,1007.58
2016-06-29T02:31:37.510Z,1007.56
2016-06-29T02:32:37.537Z,1007.5
2016-06-29T02:33:37.571Z,1007.43
2016-06-29T02:34:37.580Z,1007.42
2016-06-29T02:35:37.606Z,1007.43
2016-06-29T02:36:37.634Z,1007.39
2016-06-29T02:37:37.669Z,1007.42
2016-06-29T02:38:37.684Z,1007.43
2016-06-29T02:39:37.708Z,1007.41
2016-06-29T02:40:37.731Z,1007.4
2016-06-29T02:41:37.754Z,1007.37
2016-06-29T02:42:37.779Z,1007.39
2016-06-29T02:44:37.828Z,1007.37
2016-06-29T02:45:37.854Z,1007.31
2016-06-29T02:46:37.879Z,1007.33
2016-06-29T02:47:37.901Z,1007.3
2016-06-29T02:48:37.925Z,1007.3
2016-06-29T02:49:37.957Z,1007.3
2016-06-29T02:50:37.980Z,1007.28
2016-06-29T02:51:38.005Z,1007.25
2016-06-29T02:52:38.025Z,1007.21
2016-06-29T02:53:38.053Z,1007.21
2016-06-29T02:54:38.076Z,1007.2
2016-06-29T02:55:38.103Z,1007.21
2016-06-29T02:56:38.127Z,1007.23
2016-06-29T02:57:38.151Z,1007.18
2016-06-29T02:58:38.176Z,1007.15
2016-06-29T03:00:38.222Z,1007.09
2016-06-29T03:01:38.247Z,1007.1
2016-06-29T03:02:38.271Z,1007.12
2016-06-29T03:03:38.298Z,1007.07
2016-06-29T03:04:38.326Z,1007.08
2016-06-29T03:05:38.350Z,1007.08
2016-06-29T03:06:38.367Z,1007.04
2016-06-29T03:07:38.399Z,1007.01
2016-06-29T03:08:38.422Z,1007
2016-06-29T03:09:38.439Z,1006.94
2016-06-29T03:10:38.466Z,1006.86
2016-06-29T03:11:38.491Z,1006.86
2016-06-29T03:12:38.520Z,1006.81
2016-06-29T03:13:38.540Z,1006.86
2016-06-29T03:14:38.566Z,1006.89
2016-06-29T03:16:38.615Z,1006.9
2016-06-29T03:17:38.644Z,1006.86
2016-06-29T03:18:38.663Z,1006.86
2016-06-29T03:19:38.693Z,1006.87
2016-06-29T03:20:38.718Z,1006.88
2016-06-29T03:21:38.737Z,1006.87
2016-06-29T03:22:38.762Z,1006.84
2016-06-29T03:23:38.790Z,1006.84
2016-06-29T03:24:38.809Z,1006.79
2016-06-29T03:25:38.840Z,1006.8
2016-06-29T03:26:38.867Z,1006.78
2016-06-29T03:27:38.887Z,1006.79
2016-06-29T03:28:38.909Z,1006.8
2016-06-29T03:29:38.933Z,1006.74
2016-06-29T03:31:38.993Z,1006.74
2016-06-29T03:32:39.009Z,1006.73
2016-06-29T03:33:39.038Z,1006.75
2016-06-29T03:34:39.059Z,1006.74
2016-06-29T03:35:39.084Z,1006.73
2016-06-29T03:36:39.110Z,1006.76
2016-06-29T03:37:39.130Z,1006.76
2016-06-29T03:38:39.165Z,1006.81
2016-06-29T03:39:39.183Z,1006.83
2016-06-29T03:40:39.202Z,1006.83
2016-06-29T03:41:39.243Z,1006.86
2016-06-29T03:42:39.255Z,1006.89
2016-06-29T03:43:39.297Z,1006.95
2016-06-29T03:44:39.351Z,1006.96
2016-06-29T03:45:39.329Z,1006.97
2016-06-29T03:46:39.362Z,1007.02
2016-06-29T03:47:39.381Z,1007.02
2016-06-29T03:48:39.410Z,1007.01
2016-06-29T03:49:39.434Z,1007.05
2016-06-29T03:50:39.451Z,1007.1
2016-06-29T03:51:39.478Z,1007.09
2016-06-29T03:52:39.499Z,1007.12
2016-06-29T03:53:39.533Z,1007.14
2016-06-29T03:54:39.547Z,1007.17
2016-06-29T03:55:39.570Z,1007.16
2016-06-29T03:56:39.601Z,1007.1
2016-06-29T03:57:39.626Z,1007.07
2016-06-29T03:58:39.649Z,1007.08
2016-06-29T03:59:39.676Z,1007.07
2016-06-29T04:00:39.701Z,1007.08
2016-06-29T04:01:39.722Z,1007.05
2016-06-29T04:03:39.771Z,1007.06
2016-06-29T04:04:39.806Z,1007.05
2016-06-29T04:05:39.820Z,1007.06
2016-06-29T04:06:39.847Z,1007.11
2016-06-29T04:07:39.875Z,1007.11
2016-06-29T04:08:39.899Z,1007.11
2016-06-29T04:09:39.937Z,1007.15
2016-06-29T04:10:39.944Z,1007.08
2016-06-29T04:11:39.968Z,1007.08
2016-06-29T04:12:39.994Z,1007.09
2016-06-29T04:13:40.018Z,1007.11
2016-06-29T04:14:40.079Z,1007.14
2016-06-29T04:15:40.069Z,1007.14
2016-06-29T04:16:40.101Z,1007.14
2016-06-29T04:17:40.133Z,1007.19
2016-06-29T04:19:40.170Z,1007.32
2016-06-29T04:20:40.197Z,1007.3
2016-06-29T04:21:40.226Z,1007.28
2016-06-29T04:22:40.247Z,1007.26
2016-06-29T04:23:40.267Z,1007.18
2016-06-29T04:24:40.294Z,1007.21
2016-06-29T04:25:40.335Z,1007.2
2016-06-29T04:26:40.344Z,1007.16
2016-06-29T04:27:40.367Z,1007.07
2016-06-29T04:28:40.394Z,1007.09
2016-06-29T04:29:40.408Z,1007.14
2016-06-29T04:30:40.437Z,1007.13
2016-06-29T04:31:40.459Z,1007.22
2016-06-29T04:32:40.488Z,1007.19
2016-06-29T04:33:40.511Z,1007.16
2016-06-29T04:35:40.557Z,1007.09
2016-06-29T04:36:40.582Z,1007.12
2016-06-29T04:37:40.603Z,1007.05
2016-06-29T04:38:40.629Z,1007.05
2016-06-29T04:39:40.656Z,1007.1
2016-06-29T04:40:40.683Z,1007.1
2016-06-29T04:41:40.705Z,1007.09
2016-06-29T04:42:40.734Z,1007.04
2016-06-29T04:43:40.758Z,1007.02
2016-06-29T04:44:40.778Z,1006.99
2016-06-29T04:45:40.817Z,1006.95
2016-06-29T04:46:40.829Z,1006.94
2016-06-29T04:47:40.853Z,1006.94
2016-06-29T04:48:40.875Z,1006.91
2016-06-29T04:49:40.899Z,1006.95
2016-06-29T04:51:40.948Z,1006.96
2016-06-29T04:52:40.974Z,1006.97
2016-06-29T04:53:40.996Z,1006.98
2016-06-29T04:54:41.024Z,1006.98
2016-06-29T04:55:41.046Z,1006.93
2016-06-29T04:56:41.072Z,1006.87
2016-06-29T04:57:41.097Z,1006.85
2016-06-29T04:58:41.126Z,1006.83
2016-06-29T04:59:41.145Z,1006.82
2016-06-29T05:00:41.172Z,1006.82
2016-06-29T05:01:41.195Z,1006.8
2016-06-29T05:02:41.232Z,1006.83
2016-06-29T05:03:41.255Z,1006.8
2016-06-29T05:04:41.266Z,1006.82
2016-06-29T05:06:41.313Z,1006.83
2016-06-29T05:07:41.346Z,1006.82
2016-06-29T05:08:41.364Z,1006.78
2016-06-29T05:09:41.389Z,1006.71
2016-06-29T05:10:41.415Z,1006.69
2016-06-29T05:11:41.434Z,1006.71
2016-06-29T05:12:41.464Z,1006.75
2016-06-29T05:13:41.493Z,1006.79
2016-06-29T05:14:41.515Z,1006.79
2016-06-29T05:15:41.550Z,1006.89
2016-06-29T05:16:41.563Z,1006.91
2016-06-29T05:17:41.588Z,1006.89
2016-06-29T05:18:41.611Z,1006.93
2016-06-29T05:19:41.638Z,1006.89
2016-06-29T05:20:41.666Z,1006.9
2016-06-29T05:21:41.690Z,1006.87
2016-06-29T05:22:41.709Z,1006.92
2016-06-29T05:23:41.736Z,1006.91
2016-06-29T05:24:41.759Z,1006.86
2016-06-29T05:25:41.783Z,1006.85
2016-06-29T05:26:41.813Z,1006.84
2016-06-29T05:27:41.835Z,1006.8
2016-06-29T05:28:41.858Z,1006.81
2016-06-29T05:29:41.883Z,1006.8
2016-06-29T05:30:41.914Z,1006.81
2016-06-29T05:31:41.931Z,1006.83
2016-06-29T05:32:41.961Z,1006.85
2016-06-29T05:33:41.984Z,1006.87
2016-06-29T05:34:42.005Z,1006.84
2016-06-29T05:35:42.028Z,1006.9
2016-06-29T05:36:42.061Z,1006.91
2016-06-29T05:38:42.110Z,1006.91
2016-06-29T05:39:42.131Z,1006.94
2016-06-29T05:40:42.150Z,1007.04
2016-06-29T05:41:42.177Z,1007.18
2016-06-29T05:42:42.227Z,1007.16
2016-06-29T05:43:42.230Z,1007.27
2016-06-29T05:44:42.251Z,1007.32
2016-06-29T05:45:42.284Z,1006.91
2016-06-29T05:46:42.309Z,1006.83
2016-06-29T05:47:42.333Z,1006.87
2016-06-29T05:48:42.362Z,1006.86
2016-06-29T05:49:42.388Z,1006.87
2016-06-29T05:50:42.408Z,1007.07
2016-06-29T05:51:42.443Z,1006.85
2016-06-29T05:52:42.466Z,1006.87
2016-06-29T05:54:42.516Z,1006.83
2016-06-29T05:55:42.541Z,1006.87
2016-06-29T05:56:42.568Z,1006.82
2016-06-29T05:57:42.595Z,1006.85
2016-06-29T05:58:42.623Z,1006.81
2016-06-29T05:59:42.671Z,1006.83
2016-06-29T06:00:42.674Z,1006.82
2016-06-29T06:01:42.715Z,1006.87
2016-06-29T06:02:42.730Z,1006.87
2016-06-29T06:03:42.752Z,1006.91
2016-06-29T06:04:42.784Z,1007.38
2016-06-29T06:05:42.807Z,1007
2016-06-29T06:06:42.832Z,1006.94
2016-06-29T06:07:42.861Z,1006.86
2016-06-29T06:08:42.892Z,1006.87
2016-06-29T06:10:42.936Z,1006.81
2016-06-29T06:11:42.963Z,1006.82
2016-06-29T06:12:42.991Z,1006.78
2016-06-29T06:13:43.010Z,1006.81
2016-06-29T06:14:43.041Z,1006.74
2016-06-29T06:15:43.073Z,1006.73
2016-06-29T06:16:43.098Z,1006.69
2016-06-29T06:17:43.121Z,1006.69
2016-06-29T06:18:43.149Z,1006.72
2016-06-29T06:19:43.179Z,1006.72
2016-06-29T06:20:43.199Z,1006.69
2016-06-29T06:21:43.223Z,1006.64
2016-06-29T06:22:43.252Z,1006.69
2016-06-29T06:23:43.278Z,1006.81
2016-06-29T06:24:43.303Z,1006.72
2016-06-29T06:26:43.357Z,1006.66
2016-06-29T06:27:43.386Z,1006.64
2016-06-29T06:28:43.409Z,1006.64
2016-06-29T06:29:43.438Z,1006.73
2016-06-29T06:30:43.463Z,1006.77
2016-06-29T06:31:43.492Z,1006.72
2016-06-29T06:32:43.514Z,1006.71
2016-06-29T06:33:43.542Z,1006.74
2016-06-29T06:34:43.570Z,1006.68
2016-06-29T06:35:43.593Z,1006.68
2016-06-29T06:36:43.624Z,1006.72
2016-06-29T06:37:43.651Z,1006.68
2016-06-29T06:38:43.674Z,1006.62
2016-06-29T06:39:43.707Z,1006.61
2016-06-29T06:41:43.753Z,1006.58
2016-06-29T06:42:43.783Z,1006.63
2016-06-29T06:43:43.808Z,1006.66
2016-06-29T06:44:43.835Z,1006.68
2016-06-29T06:45:43.861Z,1006.69
2016-06-29T06:46:43.887Z,1006.66
2016-06-29T06:47:43.918Z,1006.67
2016-06-29T06:48:43.941Z,1006.86
2016-06-29T06:49:43.966Z,1006.67
2016-06-29T06:50:43.989Z,1006.65
2016-06-29T06:51:44.018Z,1006.67
2016-06-29T06:52:44.045Z,1006.92
2016-06-29T06:53:44.073Z,1007.46
2016-06-29T06:54:44.099Z,1006.99
2016-06-29T06:55:44.123Z,1006.82
2016-06-29T06:56:44.149Z,1007.72
2016-06-29T06:57:44.178Z,1007.69
2016-06-29T06:58:44.211Z,1007.58
2016-06-29T06:59:44.243Z,1006.77
2016-06-29T07:00:44.261Z,1006.62
2016-06-29T07:01:44.286Z,1006.72
2016-06-29T07:02:44.335Z,1006.65
2016-06-29T07:03:44.350Z,1006.59
2016-06-29T07:04:44.378Z,1006.6
2016-06-29T07:05:44.408Z,1006.53
2016-06-29T07:06:44.439Z,1006.61
2016-06-29T07:07:44.459Z,1006.58
2016-06-29T07:08:44.493Z,1006.56
2016-06-29T07:09:44.517Z,1006.63
2016-06-29T07:10:44.546Z,1006.94
2016-06-29T07:11:44.575Z,1006.65
2016-06-29T07:13:44.664Z,1006.55
2016-06-29T07:14:44.661Z,1006.62
2016-06-29T07:15:44.691Z,1006.62
2016-06-29T07:16:44.718Z,1006.57
2016-06-29T07:17:44.744Z,1006.55
2016-06-29T07:18:44.770Z,1006.54
2016-06-29T07:19:44.806Z,1006.59
2016-06-29T07:20:44.835Z,1006.56
2016-06-29T07:21:44.859Z,1006.49
2016-06-29T07:22:44.884Z,1006.59
2016-06-29T07:23:44.915Z,1006.53
2016-06-29T07:24:44.938Z,1006.52
2016-06-29T07:25:44.972Z,1006.49
2016-06-29T07:26:44.996Z,1006.52
2016-06-29T07:27:45.023Z,1006.47
2016-06-29T07:29:45.079Z,1006.43
2016-06-29T07:30:45.107Z,1006.49
2016-06-29T07:31:45.135Z,1006.64
2016-06-29T07:32:45.159Z,1006.48
2016-06-29T07:33:45.186Z,1006.44
2016-06-29T07:34:45.219Z,1006.52
2016-06-29T07:35:45.251Z,1006.52
2016-06-29T07:36:45.270Z,1006.49
2016-06-29T07:37:45.296Z,1006.54
2016-06-29T07:38:45.327Z,1006.54
2016-06-29T07:39:45.370Z,1006.45
2016-06-29T07:40:45.381Z,1006.51
2016-06-29T07:41:45.427Z,1006.5
2016-06-29T07:42:45.446Z,1006.41
2016-06-29T07:43:45.475Z,1006.49
2016-06-29T07:45:45.525Z,1006.54
2016-06-29T07:46:45.560Z,1006.5
2016-06-29T07:47:45.571Z,1006.56
2016-06-29T07:48:45.601Z,1006.57
2016-06-29T07:49:45.627Z,1006.72
2016-06-29T07:50:45.658Z,1006.99
2016-06-29T07:51:45.680Z,1007.33
2016-06-29T07:52:45.710Z,1007.51
2016-06-29T07:53:45.737Z,1007.45
2016-06-29T07:54:45.765Z,1006.6
2016-06-29T07:55:45.795Z,1006.47
2016-06-29T07:56:45.826Z,1006.5
2016-06-29T07:57:45.855Z,1006.69
2016-06-29T07:58:45.881Z,1007.08
2016-06-29T07:59:45.911Z,1006.92
2016-06-29T08:01:45.981Z,1006.67
2016-06-29T08:02:45.994Z,1006.68
2016-06-29T08:03:46.027Z,1006.56
2016-06-29T08:04:46.058Z,1006.47
2016-06-29T08:05:46.089Z,1006.47
2016-06-29T08:06:46.134Z,1006.64
2016-06-29T08:07:46.145Z,1006.97
2016-06-29T08:08:46.178Z,1006.87
2016-06-29T08:09:46.207Z,1006.54
2016-06-29T08:10:46.232Z,1006.69
2016-06-29T08:11:46.265Z,1006.58
2016-06-29T08:12:46.295Z,1006.93
2016-06-29T08:13:46.324Z,1006.49
2016-06-29T08:14:46.358Z,1006.46
2016-06-29T08:16:46.419Z,1006.88
2016-06-29T08:17:46.451Z,1006.66
2016-06-29T08:18:46.479Z,1006.51
2016-06-29T08:19:46.504Z,1006.65
2016-06-29T08:20:46.540Z,1006.77
2016-06-29T08:21:46.580Z,1006.86
2016-06-29T08:22:46.598Z,1006.92
2016-06-29T08:23:46.629Z,1006.7
2016-06-29T08:24:46.663Z,1006.47
2016-06-29T08:25:46.691Z,1006.39
2016-06-29T08:26:46.721Z,1006.41
2016-06-29T08:27:46.758Z,1006.39
2016-06-29T08:28:46.786Z,1006.4
2016-06-29T08:29:46.818Z,1006.41
2016-06-29T08:30:46.844Z,1006.83
2016-06-29T08:31:46.876Z,1006.88
2016-06-29T08:32:46.904Z,1006.48
2016-06-29T08:33:46.944Z,1006.8
2016-06-29T08:34:46.970Z,1006.78
2016-06-29T08:35:47.003Z,1006.78
2016-06-29T08:36:47.030Z,1006.86
2016-06-29T08:37:47.062Z,1006.89
2016-06-29T08:38:47.095Z,1006.89
2016-06-29T08:39:47.126Z,1006.94
2016-06-29T08:40:47.161Z,1006.97
2016-06-29T08:41:47.181Z,1006.99
2016-06-29T08:42:47.224Z,1006.99
2016-06-29T08:43:47.247Z,1006.35
2016-06-29T08:44:47.294Z,1006.85
2016-06-29T08:45:47.312Z,1006.85
2016-06-29T08:46:47.342Z,1006.31
2016-06-29T08:48:47.418Z,1006.84
2016-06-29T08:49:47.437Z,1006.48
2016-06-29T08:50:47.468Z,1006.88
2016-06-29T08:51:47.505Z,1006.8
2016-06-29T08:52:47.534Z,1006.5
2016-06-29T08:53:47.570Z,1006.7
2016-06-29T08:54:47.599Z,1006.26
2016-06-29T08:55:47.635Z,1006.36
2016-06-29T08:56:47.660Z,1006.46
2016-06-29T08:57:47.699Z,1006.5
2016-06-29T08:58:47.729Z,1006.48
2016-06-29T08:59:47.756Z,1006.5
2016-06-29T09:00:47.791Z,1006.28
2016-06-29T09:01:47.817Z,1006.27
2016-06-29T09:02:47.854Z,1006.3
2016-06-29T09:04:47.918Z,1006.36
2016-06-29T09:05:47.947Z,1006.33
2016-06-29T09:06:47.977Z,1006.41
2016-06-29T09:07:48.015Z,1006.46
2016-06-29T09:08:48.041Z,1006.42
2016-06-29T09:09:48.073Z,1006.37
2016-06-29T09:10:48.105Z,1006.43
2016-06-29T09:11:48.133Z,1006.33
2016-06-29T09:12:48.169Z,1006.36
2016-06-29T09:13:48.202Z,1006.34
2016-06-29T09:14:48.230Z,1006.27
2016-06-29T09:15:48.264Z,1006.29
2016-06-29T09:16:48.297Z,1006.29
2016-06-29T09:17:48.326Z,1006.33
2016-06-29T09:18:48.357Z,1006.3
2016-06-29T09:20:48.424Z,1006.35
2016-06-29T09:21:48.450Z,1006.36
2016-06-29T09:22:48.479Z,1006.35
2016-06-29T09:23:48.516Z,1006.39
2016-06-29T09:24:48.543Z,1006.37
2016-06-29T09:25:48.575Z,1006.38
2016-06-29T09:26:48.603Z,1006.4
2016-06-29T09:27:48.632Z,1006.41
2016-06-29T09:28:48.663Z,1006.38
2016-06-29T09:29:48.696Z,1006.35
2016-06-29T09:30:48.724Z,1006.33
2016-06-29T09:31:48.758Z,1006.35
2016-06-29T09:32:48.783Z,1006.36
2016-06-29T09:33:48.812Z,1006.31
2016-06-29T09:34:48.848Z,1006.36
2016-06-29T09:36:48.904Z,1006.31
2016-06-29T09:37:48.939Z,1006.28
2016-06-29T09:38:48.967Z,1006.26
2016-06-29T09:39:49.009Z,1006.28
2016-06-29T09:40:49.025Z,1006.25
2016-06-29T09:41:49.051Z,1006.26
2016-06-29T09:42:49.091Z,1006.24
2016-06-29T09:43:49.119Z,1006.23
2016-06-29T09:44:49.146Z,1006.26
2016-06-29T09:45:49.172Z,1006.22
2016-06-29T09:46:49.210Z,1006.17
2016-06-29T09:47:49.232Z,1006.18
2016-06-29T09:48:49.263Z,1006.15
2016-06-29T09:49:49.293Z,1006.19
2016-06-29T09:51:49.354Z,1006.15
2016-06-29T09:52:49.386Z,1006.19
2016-06-29T09:53:49.413Z,1006.18
2016-06-29T09:54:49.450Z,1006.21
2016-06-29T09:55:49.473Z,1006.21
2016-06-29T09:56:49.499Z,1006.22
2016-06-29T09:57:49.539Z,1006.21
2016-06-29T09:58:49.562Z,1006.2
2016-06-29T09:59:49.589Z,1006.14
2016-06-29T10:00:49.623Z,1006.22
2016-06-29T10:01:49.653Z,1006.17
2016-06-29T10:02:49.682Z,1006.23
2016-06-29T10:03:49.708Z,1006.28
2016-06-29T10:04:49.739Z,1006.29
2016-06-29T10:05:49.772Z,1006.35
2016-06-29T10:06:49.799Z,1006.4
2016-06-29T10:07:49.829Z,1006.39
2016-06-29T10:08:49.856Z,1006.52
2016-06-29T10:09:49.884Z,1006.53
2016-06-29T10:10:49.924Z,1006.54
2016-06-29T10:11:49.949Z,1006.59
2016-06-29T10:12:49.971Z,1006.69
2016-06-29T10:13:50.006Z,1006.6
2016-06-29T10:14:50.030Z,1006.65
2016-06-29T10:15:50.063Z,1006.72
2016-06-29T10:16:50.095Z,1006.76
2016-06-29T10:17:50.120Z,1006.85
2016-06-29T10:18:50.146Z,1006.84
2016-06-29T10:19:50.175Z,1006.82
2016-06-29T10:20:50.210Z,1006.83
2016-06-29T10:21:50.235Z,1006.85
2016-06-29T10:23:50.288Z,1006.88
2016-06-29T10:24:50.318Z,1006.86
2016-06-29T10:25:50.349Z,1006.9
2016-06-29T10:26:50.374Z,1006.91
2016-06-29T10:27:50.403Z,1006.82
2016-06-29T10:28:50.430Z,1006.89
2016-06-29T10:29:50.458Z,1006.84
2016-06-29T10:30:50.492Z,1006.75
2016-06-29T10:31:50.519Z,1006.79
2016-06-29T10:32:50.551Z,1006.72
2016-06-29T10:33:50.576Z,1006.78
2016-06-29T10:34:50.602Z,1006.73
2016-06-29T10:35:50.636Z,1006.73
2016-06-29T10:36:50.661Z,1006.72
2016-06-29T10:37:50.690Z,1006.68
2016-06-29T10:39:50.749Z,1006.75
2016-06-29T10:40:50.778Z,1006.74
2016-06-29T10:41:50.803Z,1006.78
2016-06-29T10:42:50.831Z,1006.8
2016-06-29T10:43:50.866Z,1006.77
2016-06-29T10:44:50.894Z,1006.76
2016-06-29T10:45:50.923Z,1006.74
2016-06-29T10:46:50.950Z,1006.75
2016-06-29T10:47:50.990Z,1006.73
2016-06-29T10:48:51.011Z,1006.79
2016-06-29T10:49:51.039Z,1006.75
2016-06-29T10:50:51.067Z,1006.72
2016-06-29T10:51:51.101Z,1006.69
2016-06-29T10:52:51.123Z,1006.68
2016-06-29T10:53:51.155Z,1006.7
2016-06-29T10:55:51.213Z,1006.73
2016-06-29T10:56:51.243Z,1006.73
2016-06-29T10:57:51.276Z,1006.74
2016-06-29T10:58:51.302Z,1006.72
2016-06-29T10:59:51.331Z,1006.7
2016-06-29T11:00:51.362Z,1006.7
2016-06-29T11:01:51.395Z,1006.68
2016-06-29T11:02:51.434Z,1006.72
2016-06-29T11:03:51.451Z,1006.78
2016-06-29T11:04:51.486Z,1006.65
2016-06-29T11:05:51.513Z,1006.63
2016-06-29T11:06:51.541Z,1006.65
2016-06-29T11:07:51.567Z,1006.6
2016-06-29T11:08:51.605Z,1006.64
2016-06-29T11:09:51.630Z,1006.63
2016-06-29T11:11:51.688Z,1006.62
2016-06-29T11:12:51.718Z,1006.61
2016-06-29T11:13:51.746Z,1006.58
2016-06-29T11:14:51.782Z,1006.52
2016-06-29T11:15:51.813Z,1006.46
2016-06-29T11:16:51.839Z,1006.52
2016-06-29T11:17:51.867Z,1006.51
2016-06-29T11:18:51.897Z,1006.54
2016-06-29T11:19:51.927Z,1006.49
2016-06-29T11:20:51.957Z,1006.53
2016-06-29T11:21:51.985Z,1006.54
2016-06-29T11:22:52.007Z,1006.51
2016-06-29T11:23:52.047Z,1006.49
2016-06-29T11:24:52.073Z,1006.49
2016-06-29T11:26:52.131Z,1006.53
2016-06-29T11:27:52.162Z,1006.49
2016-06-29T11:28:52.190Z,1006.56
2016-06-29T11:29:52.222Z,1006.48
2016-06-29T11:30:52.258Z,1006.46
2016-06-29T11:31:52.282Z,1006.47
2016-06-29T11:32:52.310Z,1006.46
2016-06-29T11:33:52.335Z,1006.46
2016-06-29T11:34:52.367Z,1006.44
2016-06-29T11:35:52.393Z,1006.39
2016-06-29T11:36:52.422Z,1006.39
2016-06-29T11:37:52.454Z,1006.43
2016-06-29T11:38:52.481Z,1006.52
2016-06-29T11:39:52.515Z,1006.47
2016-06-29T11:40:52.538Z,1006.51
2016-06-29T11:41:52.571Z,1006.46
2016-06-29T11:42:52.602Z,1006.52
2016-06-29T11:43:52.630Z,1006.49
2016-06-29T11:44:52.664Z,1006.49
2016-06-29T11:45:52.686Z,1006.51
2016-06-29T11:46:52.719Z,1006.45
2016-06-29T11:47:52.746Z,1006.46
2016-06-29T11:48:52.780Z,1006.43
2016-06-29T11:49:52.803Z,1006.48
2016-06-29T11:50:52.829Z,1006.47
2016-06-29T11:51:52.859Z,1006.41
2016-06-29T11:52:52.900Z,1006.51
2016-06-29T11:53:52.922Z,1006.49
2016-06-29T11:54:52.953Z,1006.51
2016-06-29T11:55:52.980Z,1006.53
2016-06-29T11:56:53.014Z,1006.48
2016-06-29T11:58:53.067Z,1006.51
2016-06-29T11:59:53.099Z,1006.41
2016-06-29T12:00:53.128Z,1006.44
2016-06-29T12:01:53.163Z,1006.39
2016-06-29T12:02:53.187Z,1006.48
2016-06-29T12:03:53.214Z,1006.52
2016-06-29T12:04:53.240Z,1006.52
2016-06-29T12:05:53.273Z,1006.48
2016-06-29T12:06:53.299Z,1006.46
2016-06-29T12:07:53.334Z,1006.44
2016-06-29T12:08:53.359Z,1006.45
2016-06-29T12:09:53.388Z,1006.46
2016-06-29T12:10:53.417Z,1006.47
2016-06-29T12:11:53.445Z,1006.47
2016-06-29T12:12:53.471Z,1006.57
2016-06-29T12:14:53.536Z,1006.57
2016-06-29T12:15:53.564Z,1006.61
2016-06-29T12:16:53.590Z,1006.6
2016-06-29T12:17:53.619Z,1006.64
2016-06-29T12:18:53.644Z,1006.6
2016-06-29T12:19:53.677Z,1006.46
2016-06-29T12:20:53.712Z,1006.62
2016-06-29T12:21:53.736Z,1006.61
2016-06-29T12:22:53.762Z,1006.57
2016-06-29T12:23:53.790Z,1006.51
2016-06-29T12:24:53.822Z,1006.47
2016-06-29T12:25:53.855Z,1006.38
2016-06-29T12:26:53.880Z,1006.37
2016-06-29T12:27:53.914Z,1006.36
2016-06-29T12:28:53.940Z,1006.35
2016-06-29T12:30:53.997Z,1006.41
2016-06-29T12:31:54.039Z,1006.48
2016-06-29T12:32:54.054Z,1006.41
2016-06-29T12:33:54.088Z,1006.43
2016-06-29T12:34:54.143Z,1006.37
2016-06-29T12:35:54.146Z,1006.4
2016-06-29T12:36:54.175Z,1006.47
2016-06-29T12:37:54.201Z,1006.36
2016-06-29T12:38:54.242Z,1006.48
2016-06-29T12:39:54.270Z,1006.41
2016-06-29T12:40:54.294Z,1006.37
2016-06-29T12:41:54.320Z,1006.35
2016-06-29T12:42:54.350Z,1006.44
2016-06-29T12:43:54.378Z,1006.4
2016-06-29T12:44:54.407Z,1006.4
2016-06-29T12:46:54.469Z,1006.41
2016-06-29T12:47:54.506Z,1006.46
2016-06-29T12:48:54.531Z,1006.43
2016-06-29T12:49:54.555Z,1006.43